createdAt,value
2024-02-10T00:02:21.564Z,10.18
2024-02-10T00:04:55.029Z,7.28
2024-02-10T00:07:25.001Z,8.13
2024-02-10T00:09:56.957Z,4.47
2024-02-10T00:12:26.739Z,6.05
2024-02-10T00:15:03.211Z,8.52
2024-02-10T00:17:32.990Z,5.63
2024-02-10T00:20:03.037Z,5.47
2024-02-10T00:22:30.964Z,4.85
2024-02-10T00:25:00.792Z,10.48
2024-02-10T00:27:30.566Z,8.98
2024-02-10T00:30:06.549Z,6.40
2024-02-10T00:32:39.159Z,8.18
2024-02-10T00:35:09.917Z,6.57
2024-02-10T00:37:40.765Z,7.38
2024-02-10T00:40:12.476Z,6.78
2024-02-10T00:42:43.831Z,9.48
2024-02-10T00:45:16.252Z,4.63
2024-02-10T00:47:46.833Z,6.07
2024-02-10T00:50:17.845Z,4.85
2024-02-10T00:52:51.848Z,5.20
2024-02-10T00:55:31.705Z,4.95
2024-02-10T00:58:03.890Z,9.48
2024-02-10T01:00:38.190Z,4.82
2024-02-10T01:03:10.839Z,5.00
2024-02-10T01:05:41.467Z,5.85
2024-02-10T01:08:11.485Z,4.53
2024-02-10T01:10:41.302Z,6.95
2024-02-10T01:13:11.153Z,4.50
2024-02-10T01:15:46.166Z,4.32
2024-02-10T01:18:16.090Z,3.13
2024-02-10T01:20:45.902Z,3.58
2024-02-10T01:23:15.726Z,4.22
2024-02-10T01:25:45.597Z,6.05
2024-02-10T01:28:15.610Z,8.15
2024-02-10T01:30:48.058Z,4.03
2024-02-10T01:33:17.919Z,6.15
2024-02-10T01:35:48.012Z,4.95
2024-02-10T01:38:17.831Z,7.30
2024-02-10T01:40:47.664Z,3.63
2024-02-10T01:43:17.500Z,5.25
2024-02-10T01:45:51.882Z,5.50
2024-02-10T01:48:23.610Z,4.28
2024-02-10T01:50:56.723Z,7.03
2024-02-10T01:53:27.575Z,6.68
2024-02-10T01:55:59.573Z,6.25
2024-02-10T01:58:29.782Z,4.75
2024-02-10T02:01:02.210Z,5.68
2024-02-10T02:03:32.108Z,15.80
2024-02-10T02:06:02.357Z,6.22
2024-02-10T02:08:35.004Z,6.65
2024-02-10T02:11:04.787Z,3.67
2024-02-10T02:13:36.543Z,5.85
2024-02-10T02:16:12.632Z,5.10
2024-02-10T02:18:45.543Z,5.82
2024-02-10T02:21:15.684Z,5.85
2024-02-10T02:23:48.438Z,5.85
2024-02-10T02:26:18.345Z,4.85
2024-02-10T02:28:48.584Z,6.50
2024-02-10T02:31:18.520Z,4.30
2024-02-10T02:33:48.371Z,4.95
2024-02-10T02:36:20.262Z,7.88
2024-02-10T02:38:52.655Z,4.30
2024-02-10T02:41:22.471Z,14.40
2024-02-10T02:43:52.331Z,7.20
2024-02-10T02:46:22.308Z,5.47
2024-02-10T02:48:52.795Z,8.25
2024-02-10T02:51:23.257Z,6.43
2024-02-10T02:53:59.097Z,7.72
2024-02-10T02:58:58.605Z,4.30
2024-02-10T03:01:28.504Z,4.90
2024-02-10T03:03:58.321Z,9.20
2024-02-10T03:06:28.153Z,5.00
2024-02-10T03:09:00.549Z,7.75
2024-02-10T03:11:31.393Z,6.38
2024-02-10T03:14:03.713Z,4.57
2024-02-10T03:16:34.934Z,7.82
2024-02-10T03:19:05.771Z,4.80
2024-02-10T03:21:37.302Z,4.90
2024-02-10T03:24:10.377Z,8.63
2024-02-10T03:26:40.266Z,6.80
2024-02-10T03:29:11.286Z,6.13
2024-02-10T03:31:41.095Z,6.28
2024-02-10T03:34:11.101Z,6.30
2024-02-10T03:36:41.072Z,5.38
2024-02-10T03:39:13.462Z,9.43
2024-02-10T03:41:43.268Z,4.75
2024-02-10T03:44:13.084Z,5.35
2024-02-10T03:46:42.971Z,6.72
2024-02-10T03:49:13.612Z,6.80
2024-02-10T03:51:43.418Z,8.35
2024-02-10T03:54:15.896Z,5.07
2024-02-10T03:56:48.225Z,4.10
2024-02-10T03:59:18.148Z,5.07
2024-02-10T04:01:48.532Z,4.95
2024-02-10T04:04:20.487Z,3.25
2024-02-10T04:06:50.654Z,3.72
2024-02-10T04:09:24.718Z,3.17
2024-02-10T04:11:54.553Z,3.38
2024-02-10T04:14:24.320Z,3.63
2024-02-10T04:16:55.688Z,4.88
2024-02-10T04:19:28.172Z,4.28
2024-02-10T04:21:58.033Z,6.97
2024-02-10T04:24:30.513Z,4.88
2024-02-10T04:27:00.817Z,3.67
2024-02-10T04:29:30.663Z,2.78
2024-02-10T04:32:00.974Z,2.28
2024-02-10T04:34:32.706Z,1.63
2024-02-10T04:37:02.843Z,5.63
2024-02-10T04:39:36.345Z,1.80
2024-02-10T04:42:06.655Z,1.83
2024-02-10T04:44:36.594Z,2.15
2024-02-10T04:47:06.863Z,2.25
2024-02-10T04:49:39.272Z,1.33
2024-02-10T04:52:09.226Z,1.92
2024-02-10T04:54:41.629Z,2.47
2024-02-10T04:57:11.468Z,1.05
2024-02-10T04:59:41.299Z,1.10
2024-02-10T05:02:11.298Z,1.58
2024-02-10T05:04:44.801Z,1.42
2024-02-10T05:07:16.749Z,1.00
2024-02-10T05:09:49.216Z,1.00
2024-02-10T05:12:18.998Z,0.77
2024-02-10T05:14:48.778Z,2.72
2024-02-10T05:17:18.607Z,0.52
2024-02-10T05:19:48.548Z,0.50
2024-02-10T05:22:20.028Z,1.10
2024-02-10T05:24:52.431Z,2.28
2024-02-10T05:27:22.242Z,1.15
2024-02-10T05:29:53.846Z,0.80
2024-02-10T05:32:24.328Z,1.50
2024-02-10T05:34:54.213Z,4.82
2024-02-10T05:37:24.116Z,0.95
2024-02-10T05:39:56.504Z,1.15
2024-02-10T05:42:26.281Z,1.83
2024-02-10T05:44:59.071Z,1.55
2024-02-10T05:47:29.035Z,1.75
2024-02-10T05:50:00.560Z,1.38
2024-02-10T05:52:30.445Z,1.38
2024-02-10T05:55:03.051Z,0.73
2024-02-10T05:57:32.910Z,1.42
2024-02-10T06:00:02.709Z,1.23
2024-02-10T06:02:34.501Z,0.90
2024-02-10T06:05:05.685Z,1.63
2024-02-10T06:07:36.565Z,1.70
2024-02-10T06:10:14.281Z,1.00
2024-02-10T06:12:46.076Z,0.70
2024-02-10T06:15:19.009Z,0.40
2024-02-10T06:17:52.071Z,0.82
2024-02-10T06:20:24.834Z,1.55
2024-02-10T06:22:56.916Z,4.45
2024-02-10T06:25:30.054Z,1.15
2024-02-10T06:28:02.213Z,1.00
2024-02-10T06:30:35.005Z,0.75
2024-02-10T06:33:06.210Z,1.05
2024-02-10T06:35:38.100Z,1.77
2024-02-10T06:38:11.368Z,0.77
2024-02-10T06:40:45.386Z,1.80
2024-02-10T06:43:16.193Z,0.77
2024-02-10T06:45:47.588Z,1.30
2024-02-10T06:48:18.040Z,1.23
2024-02-10T06:50:48.006Z,1.20
2024-02-10T06:53:20.957Z,1.05
2024-02-10T06:55:53.477Z,1.50
2024-02-10T06:58:24.287Z,2.60
2024-02-10T07:00:56.700Z,0.60
2024-02-10T07:03:27.598Z,1.80
2024-02-10T07:05:58.029Z,1.83
2024-02-10T07:08:30.713Z,2.00
2024-02-10T07:11:03.130Z,3.00
2024-02-10T07:13:34.215Z,3.13
2024-02-10T07:16:07.424Z,7.35
2024-02-10T07:18:48.847Z,4.63
2024-02-10T07:21:19.280Z,4.72
2024-02-10T07:23:49.559Z,3.63
2024-02-10T07:26:23.956Z,1.65
2024-02-10T07:28:55.192Z,2.85
2024-02-10T07:31:25.590Z,1.88
2024-02-10T07:34:00.235Z,1.92
2024-02-10T07:36:36.429Z,2.03
2024-02-10T07:39:09.015Z,2.28
2024-02-10T07:41:41.885Z,2.78
2024-02-10T07:44:14.694Z,2.47
2024-02-10T07:46:44.811Z,1.38
2024-02-10T07:49:15.266Z,1.35
2024-02-10T07:51:49.258Z,1.42
2024-02-10T07:54:20.593Z,3.00
2024-02-10T07:56:53.040Z,1.63
2024-02-10T07:59:25.358Z,1.63
2024-02-10T08:01:55.228Z,1.38
2024-02-10T08:04:25.307Z,3.05
2024-02-10T08:06:55.129Z,2.42
2024-02-10T08:09:24.922Z,1.10
2024-02-10T08:11:57.344Z,3.75
2024-02-10T08:14:27.143Z,2.55
2024-02-10T08:16:57.492Z,3.67
2024-02-10T08:19:30.618Z,1.33
2024-02-10T08:22:03.863Z,2.38
2024-02-10T08:24:33.979Z,2.78
2024-02-10T08:27:08.995Z,2.58
2024-02-10T08:29:40.684Z,1.17
2024-02-10T08:32:12.420Z,2.05
2024-02-10T08:34:43.983Z,2.30
2024-02-10T08:37:14.238Z,1.98
2024-02-10T08:39:47.239Z,2.03
2024-02-10T08:42:20.825Z,3.08
2024-02-10T08:44:50.709Z,3.38
2024-02-10T08:47:20.571Z,1.85
2024-02-10T08:49:51.065Z,1.25
2024-02-10T08:52:23.121Z,1.30
2024-02-10T08:54:52.541Z,3.92
2024-02-10T08:57:26.164Z,1.42
2024-02-10T08:59:56.494Z,1.42
2024-02-10T09:02:29.083Z,5.57
2024-02-10T09:04:58.960Z,5.38
2024-02-10T09:07:28.895Z,1.30
2024-02-10T09:09:58.731Z,1.40
2024-02-10T09:12:31.547Z,2.03
2024-02-10T09:15:01.377Z,2.75
2024-02-10T09:17:31.210Z,1.23
2024-02-10T09:20:01.575Z,1.20
2024-02-10T09:22:31.651Z,1.00
2024-02-10T09:25:01.488Z,2.13
2024-02-10T09:27:33.921Z,1.08
2024-02-10T09:30:05.092Z,1.05
2024-02-10T09:32:36.918Z,1.30
2024-02-10T09:35:05.107Z,0.80
2024-02-10T09:37:35.088Z,2.17
2024-02-10T09:40:05.569Z,1.73
2024-02-10T09:42:47.663Z,2.15
2024-02-10T09:45:19.356Z,1.55
2024-02-10T09:47:52.361Z,3.30
2024-02-10T09:50:31.061Z,3.33
2024-02-10T09:53:07.823Z,3.80
2024-02-10T09:55:37.951Z,2.55
2024-02-10T09:58:10.965Z,1.25
2024-02-10T10:00:40.781Z,1.67
2024-02-10T10:03:15.702Z,2.75
2024-02-10T10:05:47.399Z,3.83
2024-02-10T10:08:17.403Z,1.48
2024-02-10T10:10:47.245Z,2.55
2024-02-10T10:13:19.750Z,3.30
2024-02-10T10:15:49.819Z,2.60
2024-02-10T10:18:21.322Z,1.60
2024-02-10T10:20:52.990Z,1.38
2024-02-10T10:23:22.865Z,1.75
2024-02-10T10:25:53.153Z,0.80
2024-02-10T10:28:25.578Z,1.75
2024-02-10T10:30:59.653Z,1.35
2024-02-10T10:33:31.345Z,1.00
2024-02-10T10:36:03.964Z,1.10
2024-02-10T10:38:34.227Z,2.90
2024-02-10T10:41:07.384Z,2.85
2024-02-10T10:43:42.211Z,0.70
2024-02-10T10:46:12.370Z,1.20
2024-02-10T10:48:42.351Z,3.47
2024-02-10T10:51:14.887Z,4.45
2024-02-10T10:53:47.433Z,5.55
2024-02-10T10:56:20.627Z,0.50
2024-02-10T10:58:59.595Z,1.20
2024-02-10T11:01:31.303Z,1.33
2024-02-10T11:04:03.543Z,1.52
2024-02-10T11:06:33.966Z,5.05
2024-02-10T11:09:08.228Z,20.38
2024-02-10T11:11:40.548Z,8.27
2024-02-10T11:14:16.131Z,2.33
2024-02-10T11:16:46.073Z,1.42
2024-02-10T11:19:18.245Z,0.65
2024-02-10T11:21:49.983Z,0.30
2024-02-10T11:24:21.028Z,0.55
2024-02-10T11:26:50.935Z,1.05
2024-02-10T11:29:23.626Z,0.60
2024-02-10T11:31:53.657Z,0.40
2024-02-10T11:34:23.625Z,0.32
2024-02-10T11:36:55.739Z,2.53
2024-02-10T11:39:27.166Z,0.40
2024-02-10T11:42:01.743Z,0.60
2024-02-10T11:44:37.347Z,0.35
2024-02-10T11:47:10.034Z,0.50
2024-02-10T11:49:40.888Z,1.48
2024-02-10T11:52:11.717Z,1.52
2024-02-10T11:54:42.550Z,0.50
2024-02-10T11:57:12.384Z,3.38
2024-02-10T11:59:45.246Z,9.23
2024-02-10T12:02:17.474Z,1.50
2024-02-10T12:04:48.795Z,2.65
2024-02-10T12:07:19.015Z,0.40
2024-02-10T12:09:48.894Z,0.30
2024-02-10T12:12:19.526Z,0.57
2024-02-10T12:14:53.529Z,1.20
2024-02-10T12:17:23.640Z,0.82
2024-02-10T12:19:54.174Z,0.55
2024-02-10T12:22:24.137Z,0.40
2024-02-10T12:24:55.023Z,1.88
2024-02-10T12:27:27.605Z,0.47
2024-02-10T12:30:01.786Z,4.07
2024-02-10T12:32:34.349Z,0.80
2024-02-10T12:35:14.528Z,0.35
2024-02-10T12:37:46.544Z,0.60
2024-02-10T12:40:19.484Z,8.70
2024-02-10T12:42:49.470Z,1.42
2024-02-10T12:45:21.856Z,0.60
2024-02-10T12:47:54.377Z,0.75
2024-02-10T12:50:24.320Z,1.10
2024-02-10T12:52:54.422Z,1.08
2024-02-10T12:55:24.305Z,0.85
2024-02-10T12:57:54.165Z,0.90
2024-02-10T13:00:27.001Z,0.75
2024-02-10T13:02:58.394Z,1.20
2024-02-10T13:05:29.659Z,1.10
2024-02-10T13:08:00.534Z,0.40
2024-02-10T13:10:31.957Z,0.52
2024-02-10T13:13:04.063Z,0.57
2024-02-10T13:15:44.744Z,0.65
2024-02-10T13:18:24.262Z,0.68
2024-02-10T13:20:56.903Z,0.80
2024-02-10T13:23:26.740Z,1.38
2024-02-10T13:25:58.669Z,1.95
2024-02-10T13:28:32.100Z,0.52
2024-02-10T13:31:04.554Z,1.65
2024-02-10T13:33:34.459Z,1.40
2024-02-10T13:36:05.665Z,0.73
2024-02-10T13:38:48.075Z,2.75
2024-02-10T13:41:30.454Z,1.17
2024-02-10T13:44:12.947Z,0.68
2024-02-10T13:46:58.014Z,0.82
2024-02-10T13:49:40.435Z,1.35
2024-02-10T13:52:22.849Z,0.47
2024-02-10T13:55:05.202Z,0.60
2024-02-10T13:57:47.545Z,1.25
2024-02-10T14:00:29.740Z,1.33
2024-02-10T14:03:02.865Z,0.80
2024-02-10T14:05:56.787Z,0.88
2024-02-10T14:08:42.631Z,1.15
2024-02-10T14:11:21.871Z,0.90
2024-02-10T14:13:55.209Z,1.08
2024-02-10T14:16:32.067Z,0.80
2024-02-10T14:19:07.638Z,1.20
2024-02-10T14:21:40.181Z,1.27
2024-02-10T14:24:17.007Z,0.70
2024-02-10T14:27:02.626Z,2.25
2024-02-10T14:29:36.090Z,3.45
2024-02-10T14:32:12.153Z,1.95
2024-02-10T14:35:05.438Z,0.80
2024-02-10T14:37:43.484Z,4.60
2024-02-10T14:40:20.791Z,1.75
2024-02-10T14:42:51.089Z,1.80
2024-02-10T14:45:22.819Z,1.00
2024-02-10T14:47:56.045Z,1.45
2024-02-10T14:50:29.440Z,2.05
2024-02-10T14:52:59.497Z,1.17
2024-02-10T14:55:30.142Z,1.98
2024-02-10T14:57:59.974Z,0.98
2024-02-10T15:00:32.580Z,1.20
2024-02-10T15:03:03.682Z,4.43
2024-02-10T15:05:36.104Z,1.05
2024-02-10T15:08:06.021Z,4.05
2024-02-10T15:10:35.930Z,1.70
2024-02-10T15:13:06.501Z,2.70
2024-02-10T15:15:39.407Z,1.92
2024-02-10T15:18:09.992Z,1.05
2024-02-10T15:20:43.798Z,1.40
2024-02-10T15:23:14.967Z,2.22
2024-02-10T15:25:45.405Z,1.77
2024-02-10T15:28:18.513Z,1.50
2024-02-10T15:30:48.998Z,1.45
2024-02-10T15:33:20.853Z,2.47
2024-02-10T15:35:54.048Z,1.02
2024-02-10T15:38:25.753Z,2.78
2024-02-10T15:40:57.990Z,1.52
2024-02-10T15:43:32.670Z,1.98
2024-02-10T15:46:02.794Z,1.55
2024-02-10T15:48:32.733Z,1.98
2024-02-10T15:51:05.145Z,2.08
2024-02-10T15:53:38.673Z,1.20
2024-02-10T15:56:09.586Z,2.60
2024-02-10T15:58:43.777Z,6.90
2024-02-10T16:01:21.422Z,5.70
2024-02-10T16:03:52.068Z,2.50
2024-02-10T16:06:24.483Z,3.75
2024-02-10T16:08:55.692Z,3.35
2024-02-10T16:11:30.516Z,3.67
2024-02-10T16:14:00.419Z,3.10
2024-02-10T16:16:31.037Z,3.15
2024-02-10T16:19:01.260Z,5.05
2024-02-10T16:21:33.744Z,6.68
2024-02-10T16:24:04.463Z,5.15
2024-02-10T16:26:34.365Z,3.05
2024-02-10T16:29:04.222Z,5.47
2024-02-10T16:31:34.167Z,6.75
2024-02-10T16:34:05.894Z,4.75
2024-02-10T16:36:43.309Z,5.55
2024-02-10T16:39:13.812Z,4.20
2024-02-10T16:41:44.230Z,4.43
2024-02-10T16:44:14.283Z,5.05
2024-02-10T16:46:48.979Z,5.85
2024-02-10T16:49:24.264Z,3.35
2024-02-10T16:51:56.932Z,5.90
2024-02-10T16:54:26.885Z,5.18
2024-02-10T16:56:57.315Z,9.20
2024-02-10T16:59:29.288Z,4.10
2024-02-10T17:02:00.191Z,5.85
2024-02-10T17:04:30.088Z,7.82
2024-02-10T17:07:02.595Z,7.03
2024-02-10T17:09:33.096Z,5.72
2024-02-10T17:12:03.004Z,5.43
2024-02-10T17:14:33.904Z,6.80
2024-02-10T17:17:03.907Z,6.18
2024-02-10T17:19:34.465Z,7.82
2024-02-10T17:22:07.797Z,4.68
2024-02-10T17:24:39.294Z,4.72
2024-02-10T17:27:09.171Z,5.70
2024-02-10T17:29:40.334Z,6.22
2024-02-10T17:32:10.263Z,11.35
2024-02-10T17:34:40.372Z,7.47
2024-02-10T17:37:13.362Z,4.25
2024-02-10T17:39:43.744Z,4.47
2024-02-10T17:42:13.693Z,5.05
2024-02-10T17:44:47.097Z,7.80
2024-02-10T17:47:19.228Z,6.60
2024-02-10T17:49:49.806Z,7.75
2024-02-10T17:52:23.730Z,7.15
2024-02-10T17:54:54.752Z,6.38
2024-02-10T17:57:24.665Z,10.65
2024-02-10T17:59:58.472Z,7.35
2024-02-10T18:02:28.428Z,6.18
2024-02-10T18:04:58.546Z,23.05
2024-02-10T18:07:31.793Z,26.75
2024-02-10T18:10:06.031Z,22.20
2024-02-10T18:12:37.083Z,8.45
2024-02-10T18:15:09.529Z,10.75
2024-02-10T18:17:39.742Z,6.53
2024-02-10T18:20:11.507Z,8.65
2024-02-10T18:22:44.728Z,9.90
2024-02-10T18:25:15.617Z,8.10
2024-02-10T18:27:46.550Z,7.55
2024-02-10T18:30:20.175Z,6.65
2024-02-10T18:32:50.200Z,4.90
2024-02-10T18:35:24.358Z,7.13
2024-02-10T18:37:58.536Z,8.25
2024-02-10T18:40:31.281Z,7.57
2024-02-10T18:43:03.100Z,7.30
2024-02-10T18:45:35.607Z,7.10
2024-02-10T18:48:05.964Z,6.72
2024-02-10T18:50:37.432Z,6.03
2024-02-10T18:53:11.114Z,5.70
2024-02-10T18:55:44.234Z,7.43
2024-02-10T18:58:15.696Z,4.93
2024-02-10T19:00:50.721Z,6.65
2024-02-10T19:03:20.723Z,9.05
2024-02-10T19:05:50.795Z,6.80
2024-02-10T19:08:24.099Z,6.07
2024-02-10T19:10:54.020Z,6.40
2024-02-10T19:13:26.028Z,10.63
2024-02-10T19:15:56.217Z,7.80
2024-02-10T19:18:26.324Z,6.78
2024-02-10T19:20:58.315Z,12.23
2024-02-10T19:23:30.816Z,8.25
2024-02-10T19:26:00.778Z,6.18
2024-02-10T19:28:32.848Z,5.80
2024-02-10T19:31:02.767Z,6.47
2024-02-10T19:33:33.284Z,7.03
2024-02-10T19:36:04.123Z,9.07
2024-02-10T19:38:37.792Z,10.85
2024-02-10T19:41:09.080Z,6.05
2024-02-10T19:43:39.111Z,10.50
2024-02-10T19:46:09.089Z,9.00
2024-02-10T19:48:39.484Z,7.65
2024-02-10T19:51:14.528Z,9.50
2024-02-10T19:53:48.631Z,8.20
2024-02-10T19:56:19.543Z,7.68
2024-02-10T19:58:51.957Z,8.35
2024-02-10T20:01:26.398Z,9.93
2024-02-10T20:03:57.478Z,14.80
2024-02-10T20:06:27.511Z,9.90
2024-02-10T20:09:03.385Z,9.48
2024-02-10T20:11:33.324Z,11.20
2024-02-10T20:14:05.819Z,7.85
2024-02-10T20:16:36.310Z,10.55
2024-02-10T20:19:07.064Z,10.35
2024-02-10T20:21:37.182Z,11.80
2024-02-10T20:24:10.726Z,7.45
2024-02-10T20:26:40.833Z,11.90
2024-02-10T20:29:10.848Z,9.63
2024-02-10T20:31:40.841Z,13.13
2024-02-10T20:34:12.020Z,13.75
2024-02-10T20:36:41.818Z,11.27
2024-02-10T20:39:15.417Z,9.02
2024-02-10T20:41:45.506Z,12.45
2024-02-10T20:44:15.357Z,11.27
2024-02-10T20:46:47.514Z,12.23
2024-02-10T20:49:18.055Z,12.07
2024-02-10T20:51:48.257Z,12.43
2024-02-10T20:54:21.852Z,11.07
2024-02-10T20:56:52.549Z,13.90
2024-02-10T20:59:25.771Z,13.85
2024-02-10T21:01:56.263Z,15.18
2024-02-10T21:04:27.216Z,15.20
2024-02-10T21:06:58.139Z,11.10
2024-02-10T21:09:30.976Z,13.55
2024-02-10T21:12:05.815Z,12.30
2024-02-10T21:14:36.822Z,12.27
2024-02-10T21:17:06.969Z,11.20
2024-02-10T21:19:39.080Z,13.63
2024-02-10T21:22:09.744Z,11.52
2024-02-10T21:24:42.110Z,11.43
2024-02-10T21:27:13.709Z,14.82
2024-02-10T21:29:45.485Z,13.50
2024-02-10T21:32:15.753Z,20.50
2024-02-10T21:34:45.619Z,14.40
2024-02-10T21:37:15.892Z,15.38
2024-02-10T21:39:48.321Z,20.48
2024-02-10T21:42:19.389Z,30.00
2024-02-10T21:44:56.270Z,34.38
2024-02-10T21:47:26.201Z,31.50
2024-02-10T21:49:57.586Z,30.67
2024-02-10T21:52:28.954Z,35.85
2024-02-10T21:55:02.106Z,33.83
2024-02-10T21:57:37.170Z,39.47
2024-02-10T22:00:11.211Z,39.03
2024-02-10T22:02:42.292Z,25.17
2024-02-10T22:05:12.460Z,32.78
2024-02-10T22:07:42.924Z,42.15
2024-02-10T22:10:15.672Z,31.30
2024-02-10T22:12:46.860Z,55.55
2024-02-10T22:15:20.948Z,35.72
2024-02-10T22:17:51.549Z,60.83
2024-02-10T22:20:21.737Z,35.95
2024-02-10T22:22:51.987Z,57.45
2024-02-10T22:25:24.592Z,75.75
2024-02-10T22:27:54.413Z,91.47
2024-02-10T22:30:27.614Z,95.00
2024-02-10T22:32:57.649Z,144.07
2024-02-10T22:35:27.918Z,54.92
2024-02-10T22:37:58.729Z,106.53
2024-02-10T22:40:31.608Z,249.35
2024-02-10T22:43:01.985Z,195.40
2024-02-10T22:45:32.225Z,271.88
2024-02-10T22:48:03.204Z,243.52
2024-02-10T22:50:33.401Z,213.27
2024-02-10T22:53:05.036Z,238.15
2024-02-10T22:55:41.933Z,201.00
2024-02-10T22:58:11.808Z,206.07
2024-02-10T23:00:47.429Z,269.83
2024-02-10T23:03:17.907Z,262.50
2024-02-10T23:05:51.728Z,262.00
2024-02-10T23:08:22.205Z,227.57
2024-02-10T23:10:54.632Z,250.85
2024-02-10T23:13:27.087Z,215.98
2024-02-10T23:15:57.628Z,399.13
2024-02-10T23:18:30.795Z,412.80
2024-02-10T23:21:02.464Z,221.77
2024-02-10T23:23:34.335Z,242.88
2024-02-10T23:26:12.292Z,309.13
2024-02-10T23:28:43.595Z,255.30
2024-02-10T23:31:13.662Z,318.65
2024-02-10T23:33:44.912Z,290.30
2024-02-10T23:36:26.371Z,250.75
2024-02-10T23:38:59.768Z,321.60
2024-02-10T23:41:32.943Z,323.48
2024-02-10T23:44:03.892Z,242.80
2024-02-10T23:46:34.287Z,214.85
2024-02-10T23:49:04.345Z,258.75
2024-02-10T23:51:35.674Z,398.25
2024-02-10T23:54:07.043Z,231.57
2024-02-10T23:56:40.358Z,182.52
2024-02-10T23:59:12.694Z,145.93
